sensor_id;sensor_type;location;lat;lon;timestamp;temperature;humidity
69054;DHT22;56125;52.242;4.756;2022-09-21T00:03:14;19.80;53.50
69054;DHT22;56125;52.242;4.756;2022-09-21T00:08:15;19.80;53.50
69054;DHT22;56125;52.242;4.756;2022-09-21T00:13:16;19.80;53.40
69054;DHT22;56125;52.242;4.756;2022-09-21T00:18:19;19.80;53.50
69054;DHT22;56125;52.242;4.756;2022-09-21T00:23:20;19.80;53.60
69054;DHT22;56125;52.242;4.756;2022-09-21T00:28:21;19.70;53.60
69054;DHT22;56125;52.242;4.756;2022-09-21T00:33:22;19.70;53.60
69054;DHT22;56125;52.242;4.756;2022-09-21T00:38:24;19.70;53.60
69054;DHT22;56125;52.242;4.756;2022-09-21T00:43:25;19.70;53.60
69054;DHT22;56125;52.242;4.756;2022-09-21T00:48:27;19.70;53.50
69054;DHT22;56125;52.242;4.756;2022-09-21T00:53:28;19.70;53.50
69054;DHT22;56125;52.242;4.756;2022-09-21T00:58:33;19.70;53.60
69054;DHT22;56125;52.242;4.756;2022-09-21T01:03:34;19.70;53.70
69054;DHT22;56125;52.242;4.756;2022-09-21T01:08:35;19.70;53.70
69054;DHT22;56125;52.242;4.756;2022-09-21T01:13:45;19.70;53.60
69054;DHT22;56125;52.242;4.756;2022-09-21T01:18:58;19.70;53.60
69054;DHT22;56125;52.242;4.756;2022-09-21T01:24:16;19.70;53.60
69054;DHT22;56125;52.242;4.756;2022-09-21T01:34:37;19.70;53.70
69054;DHT22;56125;52.242;4.756;2022-09-21T01:39:42;19.70;53.50
69054;DHT22;56125;52.242;4.756;2022-09-21T01:44:46;19.70;53.50
69054;DHT22;56125;52.242;4.756;2022-09-21T01:49:51;19.70;53.60
69054;DHT22;56125;52.242;4.756;2022-09-21T01:55:00;19.70;53.60
69054;DHT22;56125;52.242;4.756;2022-09-21T02:00:04;19.70;53.50
69054;DHT22;56125;52.242;4.756;2022-09-21T02:05:06;19.70;53.50
69054;DHT22;56125;52.242;4.756;2022-09-21T02:10:12;19.70;53.40
69054;DHT22;56125;52.242;4.756;2022-09-21T02:15:20;19.60;53.40
69054;DHT22;56125;52.242;4.756;2022-09-21T02:20:29;19.70;53.40
69054;DHT22;56125;52.242;4.756;2022-09-21T02:30:52;19.60;53.30
69054;DHT22;56125;52.242;4.756;2022-09-21T02:36:03;19.60;53.30
69054;DHT22;56125;52.242;4.756;2022-09-21T02:41:29;19.60;53.40
69054;DHT22;56125;52.242;4.756;2022-09-21T02:46:39;19.60;53.30
69054;DHT22;56125;52.242;4.756;2022-09-21T02:51:45;19.60;53.30
69054;DHT22;56125;52.242;4.756;2022-09-21T02:56:48;19.60;53.30
69054;DHT22;56125;52.242;4.756;2022-09-21T03:01:51;19.60;53.20
69054;DHT22;56125;52.242;4.756;2022-09-21T03:06:52;19.60;53.20
69054;DHT22;56125;52.242;4.756;2022-09-21T03:11:53;19.60;53.10
69054;DHT22;56125;52.242;4.756;2022-09-21T03:16:54;19.60;53.20
69054;DHT22;56125;52.242;4.756;2022-09-21T03:21:55;19.60;53.30
69054;DHT22;56125;52.242;4.756;2022-09-21T03:26:56;19.60;53.30
69054;DHT22;56125;52.242;4.756;2022-09-21T03:31:57;19.60;53.20
69054;DHT22;56125;52.242;4.756;2022-09-21T03:37:03;19.60;53.10
69054;DHT22;56125;52.242;4.756;2022-09-21T03:42:04;19.60;53.10
69054;DHT22;56125;52.242;4.756;2022-09-21T03:47:06;19.50;53.00
69054;DHT22;56125;52.242;4.756;2022-09-21T03:52:07;19.50;53.00
69054;DHT22;56125;52.242;4.756;2022-09-21T03:57:08;19.60;54.00
69054;DHT22;56125;52.242;4.756;2022-09-21T04:02:09;19.50;52.90
69054;DHT22;56125;52.242;4.756;2022-09-21T04:07:10;19.50;52.90
69054;DHT22;56125;52.242;4.756;2022-09-21T04:12:11;19.50;53.00
69054;DHT22;56125;52.242;4.756;2022-09-21T04:17:12;19.50;52.90
69054;DHT22;56125;52.242;4.756;2022-09-21T04:22:13;19.50;52.90
69054;DHT22;56125;52.242;4.756;2022-09-21T04:27:15;19.50;52.80
69054;DHT22;56125;52.242;4.756;2022-09-21T04:32:16;19.50;52.90
69054;DHT22;56125;52.242;4.756;2022-09-21T04:37:16;19.50;52.90
69054;DHT22;56125;52.242;4.756;2022-09-21T04:42:18;19.50;52.90
69054;DHT22;56125;52.242;4.756;2022-09-21T04:47:19;19.50;52.80
69054;DHT22;56125;52.242;4.756;2022-09-21T04:52:23;19.50;52.90
69054;DHT22;56125;52.242;4.756;2022-09-21T04:57:24;19.40;52.90
69054;DHT22;56125;52.242;4.756;2022-09-21T05:02:25;19.40;52.90
69054;DHT22;56125;52.242;4.756;2022-09-21T05:07:26;19.40;52.90
69054;DHT22;56125;52.242;4.756;2022-09-21T05:12:28;19.40;53.00
69054;DHT22;56125;52.242;4.756;2022-09-21T05:17:29;19.40;53.00
69054;DHT22;56125;52.242;4.756;2022-09-21T05:22:30;19.40;52.90
69054;DHT22;56125;52.242;4.756;2022-09-21T05:27:31;19.40;52.90
69054;DHT22;56125;52.242;4.756;2022-09-21T05:42:55;19.40;53.00
69054;DHT22;56125;52.242;4.756;2022-09-21T05:48:02;19.40;53.00
69054;DHT22;56125;52.242;4.756;2022-09-21T05:53:33;19.50;53.00
69054;DHT22;56125;52.242;4.756;2022-09-21T06:03:47;19.50;53.00
69054;DHT22;56125;52.242;4.756;2022-09-21T06:08:49;19.50;53.10
69054;DHT22;56125;52.242;4.756;2022-09-21T06:13:50;19.50;53.10
69054;DHT22;56125;52.242;4.756;2022-09-21T06:18:52;19.50;53.10
69054;DHT22;56125;52.242;4.756;2022-09-21T06:23:53;19.50;53.10
69054;DHT22;56125;52.242;4.756;2022-09-21T06:28:54;19.50;53.20
69054;DHT22;56125;52.242;4.756;2022-09-21T06:33:55;19.50;53.20
69054;DHT22;56125;52.242;4.756;2022-09-21T06:38:56;19.50;53.10
69054;DHT22;56125;52.242;4.756;2022-09-21T06:43:57;19.50;53.10
69054;DHT22;56125;52.242;4.756;2022-09-21T06:48:58;19.60;53.20
69054;DHT22;56125;52.242;4.756;2022-09-21T06:53:59;19.60;53.10
69054;DHT22;56125;52.242;4.756;2022-09-21T06:59:01;19.60;53.10
69054;DHT22;56125;52.242;4.756;2022-09-21T07:04:02;19.70;53.10
69054;DHT22;56125;52.242;4.756;2022-09-21T07:09:03;19.70;53.10
69054;DHT22;56125;52.242;4.756;2022-09-21T07:14:04;19.80;53.00
69054;DHT22;56125;52.242;4.756;2022-09-21T07:19:05;19.80;52.90
69054;DHT22;56125;52.242;4.756;2022-09-21T07:24:06;19.80;53.90
69054;DHT22;56125;52.242;4.756;2022-09-21T07:29:07;19.90;52.90
69054;DHT22;56125;52.242;4.756;2022-09-21T07:34:08;19.90;52.80
69054;DHT22;56125;52.242;4.756;2022-09-21T07:39:09;20.00;52.70
69054;DHT22;56125;52.242;4.756;2022-09-21T07:44:10;20.00;52.80
69054;DHT22;56125;52.242;4.756;2022-09-21T07:49:11;20.00;52.70
69054;DHT22;56125;52.242;4.756;2022-09-21T07:54:13;20.00;52.60
69054;DHT22;56125;52.242;4.756;2022-09-21T07:59:15;20.10;52.50
69054;DHT22;56125;52.242;4.756;2022-09-21T08:04:16;20.10;52.50
69054;DHT22;56125;52.242;4.756;2022-09-21T08:09:17;20.10;52.40
69054;DHT22;56125;52.242;4.756;2022-09-21T08:14:18;20.10;52.40
69054;DHT22;56125;52.242;4.756;2022-09-21T08:19:19;20.20;52.40
69054;DHT22;56125;52.242;4.756;2022-09-21T08:24:21;20.20;52.30
69054;DHT22;56125;52.242;4.756;2022-09-21T08:29:25;20.20;52.10
69054;DHT22;56125;52.242;4.756;2022-09-21T08:34:26;20.20;52.10
69054;DHT22;56125;52.242;4.756;2022-09-21T08:39:27;20.20;52.00
69054;DHT22;56125;52.242;4.756;2022-09-21T08:44:42;20.20;51.90
69054;DHT22;56125;52.242;4.756;2022-09-21T08:49:50;20.20;51.90
69054;DHT22;56125;52.242;4.756;2022-09-21T08:55:20;20.20;51.90
69054;DHT22;56125;52.242;4.756;2022-09-21T09:00:21;20.20;51.70
69054;DHT22;56125;52.242;4.756;2022-09-21T09:05:58;20.20;51.70
69054;DHT22;56125;52.242;4.756;2022-09-21T09:21:47;20.20;51.50
69054;DHT22;56125;52.242;4.756;2022-09-21T09:31:53;20.20;51.50
69054;DHT22;56125;52.242;4.756;2022-09-21T09:37:04;20.20;51.50
69054;DHT22;56125;52.242;4.756;2022-09-21T09:48:07;20.20;51.30
69054;DHT22;56125;52.242;4.756;2022-09-21T09:53:21;20.20;51.10
69054;DHT22;56125;52.242;4.756;2022-09-21T09:58:26;20.20;51.10
69054;DHT22;56125;52.242;4.756;2022-09-21T10:03:28;20.20;51.00
69054;DHT22;56125;52.242;4.756;2022-09-21T10:13:38;20.20;50.80
69054;DHT22;56125;52.242;4.756;2022-09-21T10:18:48;20.20;50.70
69054;DHT22;56125;52.242;4.756;2022-09-21T10:23:55;20.20;50.60
69054;DHT22;56125;52.242;4.756;2022-09-21T10:28:59;20.20;50.50
69054;DHT22;56125;52.242;4.756;2022-09-21T10:39:21;20.20;50.30
69054;DHT22;56125;52.242;4.756;2022-09-21T10:44:33;20.20;50.10
69054;DHT22;56125;52.242;4.756;2022-09-21T10:49:35;20.30;50.00
69054;DHT22;56125;52.242;4.756;2022-09-21T10:54:38;20.30;50.00
69054;DHT22;56125;52.242;4.756;2022-09-21T10:59:41;20.20;50.00
69054;DHT22;56125;52.242;4.756;2022-09-21T11:04:48;20.30;49.80
69054;DHT22;56125;52.242;4.756;2022-09-21T11:15:26;20.30;49.70
69054;DHT22;56125;52.242;4.756;2022-09-21T11:20:41;20.30;49.60
69054;DHT22;56125;52.242;4.756;2022-09-21T11:25:59;20.30;49.60
69054;DHT22;56125;52.242;4.756;2022-09-21T11:36:16;20.30;49.30
69054;DHT22;56125;52.242;4.756;2022-09-21T11:52:19;20.40;49.10
69054;DHT22;56125;52.242;4.756;2022-09-21T11:57:44;20.40;49.00
69054;DHT22;56125;52.242;4.756;2022-09-21T12:03:36;20.40;48.90
69054;DHT22;56125;52.242;4.756;2022-09-21T12:24:50;20.40;48.80
69054;DHT22;56125;52.242;4.756;2022-09-21T12:29:56;20.40;48.80
69054;DHT22;56125;52.242;4.756;2022-09-21T12:35:01;20.40;48.80
69054;DHT22;56125;52.242;4.756;2022-09-21T12:40:24;20.50;48.70
69054;DHT22;56125;52.242;4.756;2022-09-21T12:45:32;20.40;48.50
69054;DHT22;56125;52.242;4.756;2022-09-21T12:50:43;20.50;48.50
69054;DHT22;56125;52.242;4.756;2022-09-21T12:55:55;20.50;48.50
69054;DHT22;56125;52.242;4.756;2022-09-21T13:11:52;20.50;48.30
69054;DHT22;56125;52.242;4.756;2022-09-21T13:16:58;20.50;48.30
69054;DHT22;56125;52.242;4.756;2022-09-21T13:22:21;20.40;48.20
69054;DHT22;56125;52.242;4.756;2022-09-21T13:27:25;20.40;48.10
69054;DHT22;56125;52.242;4.756;2022-09-21T13:32:51;20.50;48.20
69054;DHT22;56125;52.242;4.756;2022-09-21T13:38:27;20.40;48.10
69054;DHT22;56125;52.242;4.756;2022-09-21T13:48:57;20.40;48.20
69054;DHT22;56125;52.242;4.756;2022-09-21T13:54:00;20.40;48.10
69054;DHT22;56125;52.242;4.756;2022-09-21T13:59:02;20.40;48.20
69054;DHT22;56125;52.242;4.756;2022-09-21T14:04:19;20.40;48.10
69054;DHT22;56125;52.242;4.756;2022-09-21T14:09:25;20.40;48.10
69054;DHT22;56125;52.242;4.756;2022-09-21T14:14:33;20.40;48.10
69054;DHT22;56125;52.242;4.756;2022-09-21T14:19:57;20.40;48.10
69054;DHT22;56125;52.242;4.756;2022-09-21T14:25:24;20.40;48.10
69054;DHT22;56125;52.242;4.756;2022-09-21T14:30:29;20.40;48.10
69054;DHT22;56125;52.242;4.756;2022-09-21T14:35:36;20.40;48.10
69054;DHT22;56125;52.242;4.756;2022-09-21T14:40:39;20.40;48.00
69054;DHT22;56125;52.242;4.756;2022-09-21T14:51:36;20.40;48.10
69054;DHT22;56125;52.242;4.756;2022-09-21T14:57:02;20.40;48.00
69054;DHT22;56125;52.242;4.756;2022-09-21T15:07:24;20.40;48.00
69054;DHT22;56125;52.242;4.756;2022-09-21T15:12:57;20.40;49.00
69054;DHT22;56125;52.242;4.756;2022-09-21T15:18:00;20.40;47.90
69054;DHT22;56125;52.242;4.756;2022-09-21T15:23:01;20.40;47.90
69054;DHT22;56125;52.242;4.756;2022-09-21T15:28:05;20.50;47.70
69054;DHT22;56125;52.242;4.756;2022-09-21T15:33:10;20.50;48.70
69054;DHT22;56125;52.242;4.756;2022-09-21T15:38:30;20.40;47.60
69054;DHT22;56125;52.242;4.756;2022-09-21T15:43:32;20.50;47.60
69054;DHT22;56125;52.242;4.756;2022-09-21T15:48:37;20.50;47.60
69054;DHT22;56125;52.242;4.756;2022-09-21T15:53:45;20.50;47.50
69054;DHT22;56125;52.242;4.756;2022-09-21T15:58:47;20.50;47.40
69054;DHT22;56125;52.242;4.756;2022-09-21T16:04:04;20.50;47.40
69054;DHT22;56125;52.242;4.756;2022-09-21T16:14:29;20.40;47.40
69054;DHT22;56125;52.242;4.756;2022-09-21T16:24:52;20.40;47.60
69054;DHT22;56125;52.242;4.756;2022-09-21T16:29:56;20.40;47.60
69054;DHT22;56125;52.242;4.756;2022-09-21T16:40:31;20.40;48.00
69054;DHT22;56125;52.242;4.756;2022-09-21T16:45:33;20.40;48.70
69054;DHT22;56125;52.242;4.756;2022-09-21T16:50:34;20.40;49.00
69054;DHT22;56125;52.242;4.756;2022-09-21T16:55:36;20.40;48.40
69054;DHT22;56125;52.242;4.756;2022-09-21T17:00:39;20.40;48.70
69054;DHT22;56125;52.242;4.756;2022-09-21T17:05:41;20.30;48.40
69054;DHT22;56125;52.242;4.756;2022-09-21T17:10:44;20.30;48.60
69054;DHT22;56125;52.242;4.756;2022-09-21T17:15:46;20.30;48.20
69054;DHT22;56125;52.242;4.756;2022-09-21T17:20:47;20.30;48.50
69054;DHT22;56125;52.242;4.756;2022-09-21T17:25:49;20.30;48.80
69054;DHT22;56125;52.242;4.756;2022-09-21T17:30:52;20.30;48.90
69054;DHT22;56125;52.242;4.756;2022-09-21T17:35:53;20.30;49.00
69054;DHT22;56125;52.242;4.756;2022-09-21T17:40:56;20.30;49.10
69054;DHT22;56125;52.242;4.756;2022-09-21T17:46:10;20.30;49.70
69054;DHT22;56125;52.242;4.756;2022-09-21T17:51:14;20.30;49.70
69054;DHT22;56125;52.242;4.756;2022-09-21T17:57:05;20.30;49.70
69054;DHT22;56125;52.242;4.756;2022-09-21T18:02:23;20.20;49.70
69054;DHT22;56125;52.242;4.756;2022-09-21T18:07:24;20.20;49.70
69054;DHT22;56125;52.242;4.756;2022-09-21T18:13:04;20.20;49.80
69054;DHT22;56125;52.242;4.756;2022-09-21T18:18:33;20.20;49.60
69054;DHT22;56125;52.242;4.756;2022-09-21T18:28:51;20.20;49.80
69054;DHT22;56125;52.242;4.756;2022-09-21T18:39:17;20.20;50.00
69054;DHT22;56125;52.242;4.756;2022-09-21T18:44:37;20.20;50.20
69054;DHT22;56125;52.242;4.756;2022-09-21T18:49:50;20.20;50.20
69054;DHT22;56125;52.242;4.756;2022-09-21T18:54:54;20.20;50.20
69054;DHT22;56125;52.242;4.756;2022-09-21T18:59:55;20.20;51.30
69054;DHT22;56125;52.242;4.756;2022-09-21T19:04:57;20.20;50.30
69054;DHT22;56125;52.242;4.756;2022-09-21T19:10:16;20.20;50.40
69054;DHT22;56125;52.242;4.756;2022-09-21T19:15:45;20.10;50.30
69054;DHT22;56125;52.242;4.756;2022-09-21T19:26:48;20.10;50.40
69054;DHT22;56125;52.242;4.756;2022-09-21T19:31:49;20.20;50.60
69054;DHT22;56125;52.242;4.756;2022-09-21T19:36:50;20.10;50.60
69054;DHT22;56125;52.242;4.756;2022-09-21T19:42:11;20.10;50.70
69054;DHT22;56125;52.242;4.756;2022-09-21T19:47:25;20.10;50.60
69054;DHT22;56125;52.242;4.756;2022-09-21T19:52:30;20.10;50.70
69054;DHT22;56125;52.242;4.756;2022-09-21T19:57:32;20.10;50.80
69054;DHT22;56125;52.242;4.756;2022-09-21T20:03:01;20.10;50.70
69054;DHT22;56125;52.242;4.756;2022-09-21T20:08:23;20.10;50.80
69054;DHT22;56125;52.242;4.756;2022-09-21T20:19:00;20.10;50.80
69054;DHT22;56125;52.242;4.756;2022-09-21T20:24:17;20.00;50.70
69054;DHT22;56125;52.242;4.756;2022-09-21T20:29:19;20.10;50.80
69054;DHT22;56125;52.242;4.756;2022-09-21T20:34:21;20.00;50.80
69054;DHT22;56125;52.242;4.756;2022-09-21T20:39:22;20.00;50.80
69054;DHT22;56125;52.242;4.756;2022-09-21T20:44:24;20.00;50.90
69054;DHT22;56125;52.242;4.756;2022-09-21T20:49:25;20.00;50.90
69054;DHT22;56125;52.242;4.756;2022-09-21T20:54:26;20.00;50.90
69054;DHT22;56125;52.242;4.756;2022-09-21T20:59:27;20.00;50.90
69054;DHT22;56125;52.242;4.756;2022-09-21T21:04:28;20.00;50.90
69054;DHT22;56125;52.242;4.756;2022-09-21T21:09:30;20.00;51.00
69054;DHT22;56125;52.242;4.756;2022-09-21T21:14:31;20.00;51.30
69054;DHT22;56125;52.242;4.756;2022-09-21T21:19:32;19.90;53.00
69054;DHT22;56125;52.242;4.756;2022-09-21T21:24:33;20.00;52.30
69054;DHT22;56125;52.242;4.756;2022-09-21T21:29:44;20.00;52.40
69054;DHT22;56125;52.242;4.756;2022-09-21T21:34:51;20.00;52.40
69054;DHT22;56125;52.242;4.756;2022-09-21T21:39:53;19.90;52.40
69054;DHT22;56125;52.242;4.756;2022-09-21T21:44:54;20.00;52.30
69054;DHT22;56125;52.242;4.756;2022-09-21T21:49:55;20.00;52.30
69054;DHT22;56125;52.242;4.756;2022-09-21T21:54:56;19.90;52.20
69054;DHT22;56125;52.242;4.756;2022-09-21T21:59:57;19.90;52.20
69054;DHT22;56125;52.242;4.756;2022-09-21T22:04:59;19.90;52.20
69054;DHT22;56125;52.242;4.756;2022-09-21T22:10:00;19.90;52.10
69054;DHT22;56125;52.242;4.756;2022-09-21T22:15:01;19.90;52.10
69054;DHT22;56125;52.242;4.756;2022-09-21T22:20:03;19.90;52.00
69054;DHT22;56125;52.242;4.756;2022-09-21T22:25:04;19.90;52.10
69054;DHT22;56125;52.242;4.756;2022-09-21T22:30:06;19.90;52.10
69054;DHT22;56125;52.242;4.756;2022-09-21T22:35:07;19.90;52.00
69054;DHT22;56125;52.242;4.756;2022-09-21T22:40:09;19.90;52.00
69054;DHT22;56125;52.242;4.756;2022-09-21T22:45:10;19.90;52.00
69054;DHT22;56125;52.242;4.756;2022-09-21T22:50:11;19.90;51.90
69054;DHT22;56125;52.242;4.756;2022-09-21T22:55:12;19.90;52.00
69054;DHT22;56125;52.242;4.756;2022-09-21T23:00:13;19.80;51.90
69054;DHT22;56125;52.242;4.756;2022-09-21T23:05:14;19.80;51.90
69054;DHT22;56125;52.242;4.756;2022-09-21T23:10:16;19.90;52.00
69054;DHT22;56125;52.242;4.756;2022-09-21T23:15:17;19.80;52.00
69054;DHT22;56125;52.242;4.756;2022-09-21T23:20:19;19.80;51.90
69054;DHT22;56125;52.242;4.756;2022-09-21T23:25:20;19.90;52.00
69054;DHT22;56125;52.242;4.756;2022-09-21T23:30:21;19.80;51.90
69054;DHT22;56125;52.242;4.756;2022-09-21T23:35:22;19.80;51.90
69054;DHT22;56125;52.242;4.756;2022-09-21T23:40:23;19.80;51.90
69054;DHT22;56125;52.242;4.756;2022-09-21T23:45:24;19.80;51.90
69054;DHT22;56125;52.242;4.756;2022-09-21T23:50:25;19.80;51.90
69054;DHT22;56125;52.242;4.756;2022-09-21T23:55:26;19.80;51.90
